createdAt,value
2023-04-19T01:06:39.625Z,100560.06
2023-04-19T01:09:07.537Z,100564.59
2023-04-19T01:11:37.147Z,100558.09
2023-04-19T01:14:12.093Z,100542.97
2023-04-19T01:16:51.500Z,100558.09
2023-04-19T01:19:19.400Z,100542.97
2023-04-19T01:22:05.200Z,100561.19
2023-04-19T01:24:40.723Z,100542.34
2023-04-19T01:28:04.632Z,100562.59
2023-04-19T01:30:41.298Z,100563.31
2023-04-19T01:33:18.995Z,100559.31
2023-04-19T01:36:04.128Z,100559.41
2023-04-19T01:38:53.351Z,100557.72
2023-04-19T01:41:31.596Z,100543.84
2023-04-19T01:44:11.953Z,100547.38
2023-04-19T01:46:39.735Z,100543.41
2023-04-19T01:49:19.398Z,100545.16
2023-04-19T01:52:17.103Z,100542.69
2023-04-19T01:55:14.582Z,100541.13
2023-04-19T01:58:29.556Z,100544.16
2023-04-19T02:01:02.638Z,100545.09
2023-04-19T02:03:44.842Z,100535.91
2023-04-19T02:06:15.554Z,100541.41
2023-04-19T02:08:59.450Z,100542.25
2023-04-19T02:11:38.140Z,100543.16
2023-04-19T02:14:34.456Z,100541.94
2023-04-19T02:17:14.364Z,100542.22
2023-04-19T02:23:29.260Z,100539.53
2023-04-19T02:26:30.771Z,100539.19
2023-04-19T02:29:08.353Z,100549.78
2023-04-19T02:31:47.085Z,100538.06
2023-04-19T02:34:17.711Z,100536.00
2023-04-19T02:36:53.633Z,100544.06
2023-04-19T02:39:27.338Z,100534.56
2023-04-19T02:42:03.013Z,100542.81
2023-04-19T02:44:58.307Z,100555.06
2023-04-19T02:47:41.141Z,100558.88
2023-04-19T02:50:32.584Z,100562.06
2023-04-19T02:53:10.518Z,100560.81
2023-04-19T02:55:51.487Z,100559.13
2023-04-19T02:58:27.995Z,100557.06
2023-04-19T03:01:07.338Z,100562.38
2023-04-19T03:03:37.469Z,100554.78
2023-04-19T03:06:05.953Z,100558.16
2023-04-19T03:08:41.405Z,100556.75
2023-04-19T03:11:28.007Z,100564.53
2023-04-19T03:14:17.883Z,100562.84
2023-04-19T03:16:59.111Z,100554.38
2023-04-19T03:19:31.765Z,100554.00
2023-04-19T03:22:29.177Z,100559.50
2023-04-19T03:24:58.803Z,100541.19
2023-04-19T03:27:39.965Z,100563.34
2023-04-19T03:30:31.402Z,100566.31
2023-04-19T03:33:00.596Z,100557.53
2023-04-19T03:35:37.512Z,100569.72
2023-04-19T03:38:28.951Z,100557.91
2023-04-19T03:41:30.855Z,100552.06
2023-04-19T03:44:01.273Z,100561.69
2023-04-19T03:46:43.479Z,100564.09
2023-04-19T03:49:13.300Z,100565.16
2023-04-19T03:51:49.499Z,100571.94
2023-04-19T03:54:21.172Z,100578.28
2023-04-19T03:56:54.963Z,100571.97
2023-04-19T03:59:35.924Z,100564.78
2023-04-19T04:02:05.300Z,100566.09
2023-04-19T04:04:34.611Z,100577.03
2023-04-19T04:07:16.006Z,100575.75
2023-04-19T04:09:55.944Z,100571.97
2023-04-19T04:12:24.654Z,100581.28
2023-04-19T04:14:55.270Z,100574.97
2023-04-19T04:17:31.845Z,100575.41
2023-04-19T04:20:08.374Z,100570.78
2023-04-19T04:22:36.126Z,100575.66
2023-04-19T04:25:04.776Z,100576.13
2023-04-19T04:28:00.547Z,100581.41
2023-04-19T04:30:38.440Z,100576.56
2023-04-19T04:33:09.789Z,100568.97
2023-04-19T04:36:07.216Z,100575.50
2023-04-19T04:38:38.348Z,100561.44
2023-04-19T04:41:51.539Z,100587.75
2023-04-19T04:44:28.398Z,100577.66
2023-04-19T04:47:03.433Z,100578.09
2023-04-19T04:49:40.195Z,100585.88
2023-04-19T04:52:36.821Z,100586.34
2023-04-19T04:55:52.644Z,100588.88
2023-04-19T04:58:21.307Z,100578.13
2023-04-19T05:00:50.010Z,100576.91
2023-04-19T05:03:27.616Z,100577.50
2023-04-19T05:05:55.068Z,100574.16
2023-04-19T05:08:29.084Z,100578.81
2023-04-19T05:11:18.123Z,100587.03
2023-04-19T05:13:48.252Z,100580.28
2023-04-19T05:19:00.836Z,100580.69
2023-04-19T05:21:48.897Z,100580.03
2023-04-19T05:24:28.039Z,100574.81
2023-04-19T05:26:57.514Z,100575.00
2023-04-19T05:29:26.271Z,100575.66
2023-04-19T05:31:55.963Z,100576.94
2023-04-19T05:34:29.620Z,100580.31
2023-04-19T05:37:24.683Z,100590.44
2023-04-19T05:40:12.526Z,100588.53
2023-04-19T05:42:52.268Z,100584.31
2023-04-19T05:45:23.775Z,100598.03
2023-04-19T05:47:54.864Z,100603.09
2023-04-19T05:50:23.448Z,100603.31
2023-04-19T05:53:16.525Z,100616.81
2023-04-19T05:55:46.031Z,100613.63
2023-04-19T05:58:13.656Z,100614.91
2023-04-19T06:01:00.158Z,100615.53
2023-04-19T06:03:47.112Z,100614.91
2023-04-19T06:06:15.509Z,100624.63
2023-04-19T06:08:49.080Z,100625.25
2023-04-19T06:11:50.144Z,100625.44
2023-04-19T06:14:19.738Z,100622.06
2023-04-19T06:16:54.563Z,100619.13
2023-04-19T06:19:23.765Z,100635.16
2023-04-19T06:22:01.303Z,100635.59
2023-04-19T06:24:29.998Z,100629.06
2023-04-19T06:27:04.713Z,100635.59
2023-04-19T06:29:38.394Z,100633.06
2023-04-19T06:32:27.652Z,100651.00
2023-04-19T06:34:55.536Z,100642.34
2023-04-19T06:37:23.625Z,100627.59
2023-04-19T06:39:58.631Z,100631.34
2023-04-19T06:42:28.612Z,100637.69
2023-04-19T06:45:09.015Z,100649.09
2023-04-19T06:47:52.925Z,100653.97
2023-04-19T06:50:24.732Z,100644.88
2023-04-19T06:52:55.780Z,100652.66
2023-04-19T06:55:23.839Z,100657.09
2023-04-19T06:57:54.744Z,100649.28
2023-04-19T07:00:28.560Z,100645.69
2023-04-19T07:03:05.927Z,100654.94
2023-04-19T07:05:33.714Z,100658.69
2023-04-19T07:08:10.031Z,100651.50
2023-04-19T07:10:47.981Z,100658.59
2023-04-19T07:13:19.675Z,100667.47
2023-04-19T07:15:58.506Z,100637.25
2023-04-19T07:18:37.471Z,100659.75
2023-04-19T07:21:38.924Z,100666.44
2023-04-19T07:24:08.055Z,100645.50
2023-04-19T07:26:58.068Z,100676.69
2023-04-19T07:29:25.853Z,100663.75
2023-04-19T07:32:02.240Z,100672.13
2023-04-19T07:35:22.806Z,100686.97
2023-04-19T07:37:52.794Z,100678.28
2023-04-19T07:40:21.699Z,100687.44
2023-04-19T07:43:08.393Z,100688.75
2023-04-19T07:45:37.146Z,100681.25
2023-04-19T07:48:29.466Z,100689.97
2023-04-19T07:50:59.705Z,100685.63
2023-04-19T07:53:29.373Z,100696.47
2023-04-19T07:55:58.824Z,100680.72
2023-04-19T07:58:28.002Z,100702.31
2023-04-19T08:00:57.062Z,100703.97
2023-04-19T08:03:25.413Z,100711.81
2023-04-19T08:06:13.374Z,100718.16
2023-04-19T08:08:41.041Z,100712.28
2023-04-19T08:11:08.656Z,100713.41
2023-04-19T08:13:37.094Z,100725.44
2023-04-19T08:18:37.846Z,100722.25
2023-04-19T08:21:09.260Z,100723.47
2023-04-19T08:23:47.168Z,100715.16
2023-04-19T08:26:17.671Z,100725.16
2023-04-19T08:28:45.299Z,100729.25
2023-04-19T08:31:14.220Z,100735.84
2023-04-19T08:33:41.871Z,100744.75
2023-04-19T08:36:10.661Z,100733.28
2023-04-19T08:38:39.738Z,100728.81
2023-04-19T08:41:07.153Z,100731.44
2023-04-19T08:43:38.118Z,100749.53
2023-04-19T08:46:06.797Z,100743.41
2023-04-19T08:48:37.666Z,100743.94
2023-04-19T08:59:29.745Z,100751.53
2023-04-19T09:02:01.398Z,100729.16
2023-04-19T09:04:36.746Z,100751.94
2023-04-19T09:07:05.259Z,100752.13
2023-04-19T09:09:39.170Z,100754.31
2023-04-19T09:16:04.606Z,100748.47
2023-04-19T09:19:23.518Z,100747.50
2023-04-19T21:22:14.396Z,100961.34
2023-04-19T21:24:41.909Z,100964.81
2023-04-19T21:27:09.497Z,100966.25
2023-04-19T21:33:25.854Z,100973.72
2023-04-19T21:35:53.399Z,100955.06
2023-04-19T21:38:20.889Z,100965.03
2023-04-19T21:40:49.875Z,100953.41
2023-04-19T21:43:17.676Z,100956.41
2023-04-19T21:45:47.143Z,100954.47
2023-04-19T21:48:14.923Z,100960.00
2023-04-19T21:50:42.972Z,100961.81
2023-04-19T21:53:10.779Z,100946.84
2023-04-19T21:55:39.918Z,100964.19
2023-04-19T21:58:07.695Z,100974.78
2023-04-19T22:00:36.681Z,100957.91
2023-04-19T22:03:06.525Z,100985.84
2023-04-19T22:05:34.324Z,100978.50
2023-04-19T22:08:07.721Z,100990.16
2023-04-19T22:10:35.760Z,101001.09
2023-04-19T22:13:04.071Z,100991.94
2023-04-19T22:15:32.534Z,100996.41
2023-04-19T22:18:03.600Z,101010.47
2023-04-19T22:20:32.756Z,101007.47
2023-04-19T22:23:00.631Z,100996.13
2023-04-19T22:25:31.908Z,100989.16
2023-04-19T22:27:59.417Z,101006.13
2023-04-19T22:30:27.513Z,100999.13
2023-04-19T22:32:55.375Z,101000.22
2023-04-19T22:35:23.171Z,101001.75
2023-04-19T22:37:51.048Z,101004.53
2023-04-19T22:40:18.694Z,101001.75
2023-04-19T22:42:46.216Z,100999.47
2023-04-19T22:45:14.110Z,101009.66
2023-04-19T22:47:44.192Z,101025.41
2023-04-19T22:50:12.263Z,101014.84
2023-04-19T22:52:42.003Z,101028.41
2023-04-19T22:55:11.699Z,101025.91
2023-04-19T22:57:39.360Z,101021.91
2023-04-19T23:00:07.964Z,101035.75
2023-04-19T23:02:36.197Z,101032.34
2023-04-19T23:05:05.233Z,101026.66
2023-04-19T23:07:33.759Z,101031.72
2023-04-19T23:10:01.681Z,101030.63
2023-04-19T23:12:31.852Z,101029.41
2023-04-19T23:14:59.958Z,101035.75
2023-04-19T23:17:29.077Z,101039.59
2023-04-19T23:19:58.936Z,101041.28
2023-04-19T23:22:27.048Z,101043.00
2023-04-19T23:24:56.799Z,101046.00
2023-04-19T23:27:24.397Z,101040.25
2023-04-19T23:29:52.112Z,101040.47
2023-04-19T23:32:19.874Z,101038.78
2023-04-19T23:34:48.019Z,101034.56
2023-04-19T23:37:17.711Z,101028.69
2023-04-19T23:39:45.471Z,101027.22
2023-04-19T23:42:13.073Z,101032.50
2023-04-19T23:44:42.771Z,101008.88
2023-04-19T23:47:12.273Z,101031.91
2023-04-19T23:49:39.880Z,101013.47
2023-04-19T23:52:07.541Z,101009.25
2023-04-19T23:54:35.177Z,101010.09
2023-04-19T23:57:06.411Z,101014.41
2023-04-19T23:59:34.610Z,101003.22
